Ashby, Massachusetts
Current Conditions -  °F | °C
As of 1:52 PM on Thursday 30 Oct 2014 (Local Time) from KFIT Reporting Station
Clear Clear  
Wind Chill: 57°   Ceiling: Unl
Heat Index: 57°   Visibility: 10mi
Dew Point: 35°   Wind: 8mph
Humidity: 44%   Direction: 310°NW
Pressure: 29.93"   Gusts: NA
Location:  42.68°N, 71.82°W
Report Text: KFIT 301752Z AUTO 31007KT 260V320 10SM CLR 14/02 A2993 RMK AO2 SLP135 T01390017 10144 20067 58006
Loading
Personal Weather Stations






























Interactive Weather Map New forecast layout! Learn more

10-Day Weather Forecast

Advertisements
Track Severe Weather on mobile